sensor_id;sensor_type;location;lat;lon;timestamp;pressure;altitude;pressure_sealevel;temperature;humidity
37298;BME280;30517;51.932;4.278;2023-03-01T00:00:20;161062.91;;;35.19;100.00
37298;BME280;30517;51.932;4.278;2023-03-01T00:03:01;161158.97;;;35.16;100.00
37298;BME280;30517;51.932;4.278;2023-03-01T00:05:46;162592.47;;;34.85;100.00
37298;BME280;30517;51.932;4.278;2023-03-01T00:08:27;161270.88;;;35.14;100.00
37298;BME280;30517;51.932;4.278;2023-03-01T00:11:13;161493.16;;;35.10;100.00
37298;BME280;30517;51.932;4.278;2023-03-01T00:13:57;161563.88;;;35.09;100.00
37298;BME280;30517;51.932;4.278;2023-03-01T00:16:42;161433.84;;;35.12;100.00
37298;BME280;30517;51.932;4.278;2023-03-01T00:19:23;161502.28;;;35.10;100.00
37298;BME280;30517;51.932;4.278;2023-03-01T00:22:03;161706.09;;;35.06;100.00
37298;BME280;30517;51.932;4.278;2023-03-01T00:24:44;161915.03;;;35.02;100.00
37298;BME280;30517;51.932;4.278;2023-03-01T00:27:25;162067.44;;;34.98;100.00
37298;BME280;30517;51.932;4.278;2023-03-01T00:30:06;162042.38;;;34.99;100.00
37298;BME280;30517;51.932;4.278;2023-03-01T00:32:48;162117.50;;;34.98;100.00
37298;BME280;30517;51.932;4.278;2023-03-01T00:35:29;162439.19;;;34.90;100.00
37298;BME280;30517;51.932;4.278;2023-03-01T00:38:10;162222.59;;;34.94;100.00
37298;BME280;30517;51.932;4.278;2023-03-01T00:40:51;162306.84;;;34.93;100.00
37298;BME280;30517;51.932;4.278;2023-03-01T00:43:32;162261.31;;;34.94;100.00
37298;BME280;30517;51.932;4.278;2023-03-01T00:46:18;162393.16;;;34.92;100.00
37298;BME280;30517;51.932;4.278;2023-03-01T00:49:00;162497.59;;;34.90;100.00
37298;BME280;30517;51.932;4.278;2023-03-01T00:51:42;162575.38;;;34.88;100.00
37298;BME280;30517;51.932;4.278;2023-03-01T00:54:23;162545.13;;;34.88;100.00
37298;BME280;30517;51.932;4.278;2023-03-01T00:57:03;162639.03;;;34.87;100.00
37298;BME280;30517;51.932;4.278;2023-03-01T00:59:44;162775.13;;;34.84;100.00
37298;BME280;30517;51.932;4.278;2023-03-01T01:02:25;162858.75;;;34.82;100.00
37298;BME280;30517;51.932;4.278;2023-03-01T01:05:06;163112.66;;;34.77;100.00
37298;BME280;30517;51.932;4.278;2023-03-01T01:07:47;162729.59;;;34.85;100.00
37298;BME280;30517;51.932;4.278;2023-03-01T01:10:29;162931.94;;;34.81;100.00
37298;BME280;30517;51.932;4.278;2023-03-01T01:13:09;163049.78;;;34.79;100.00
37298;BME280;30517;51.932;4.278;2023-03-01T01:15:50;163057.63;;;34.78;100.00
37298;BME280;30517;51.932;4.278;2023-03-01T01:18:31;167942.69;;;33.65;100.00
37298;BME280;30517;51.932;4.278;2023-03-01T01:21:15;163348.06;;;34.71;100.00
37298;BME280;30517;51.932;4.278;2023-03-01T01:23:57;163357.47;;;34.72;100.00
37298;BME280;30517;51.932;4.278;2023-03-01T01:26:38;163446.75;;;34.70;100.00
37298;BME280;30517;51.932;4.278;2023-03-01T01:29:19;163295.66;;;34.73;100.00
37298;BME280;30517;51.932;4.278;2023-03-01T01:32:00;163370.38;;;34.70;100.00
37298;BME280;30517;51.932;4.278;2023-03-01T01:34:40;163485.34;;;34.68;100.00
37298;BME280;30517;51.932;4.278;2023-03-01T01:37:21;163571.94;;;34.66;100.00
37298;BME280;30517;51.932;4.278;2023-03-01T01:40:02;163492.19;;;34.68;100.00
37298;BME280;30517;51.932;4.278;2023-03-01T01:42:44;163622.47;;;34.65;100.00
37298;BME280;30517;51.932;4.278;2023-03-01T01:45:34;163483.63;;;34.67;100.00
37298;BME280;30517;51.932;4.278;2023-03-01T01:48:20;163347.22;;;34.70;100.00
37298;BME280;30517;51.932;4.278;2023-03-01T01:51:02;163437.31;;;34.68;100.00
37298;BME280;30517;51.932;4.278;2023-03-01T01:53:46;163601.88;;;34.65;100.00
37298;BME280;30517;51.932;4.278;2023-03-01T01:56:29;163746.53;;;34.61;100.00
37298;BME280;30517;51.932;4.278;2023-03-01T01:59:11;163890.22;;;34.58;100.00
37298;BME280;30517;51.932;4.278;2023-03-01T02:01:52;164120.03;;;34.53;100.00
37298;BME280;30517;51.932;4.278;2023-03-01T02:04:33;164039.75;;;34.55;100.00
37298;BME280;30517;51.932;4.278;2023-03-01T02:07:17;164087.53;;;34.54;100.00
37298;BME280;30517;51.932;4.278;2023-03-01T02:09:58;164032.88;;;34.55;100.00
37298;BME280;30517;51.932;4.278;2023-03-01T02:12:39;163997.88;;;34.56;100.00
37298;BME280;30517;51.932;4.278;2023-03-01T02:15:20;164149.63;;;34.51;100.00
37298;BME280;30517;51.932;4.278;2023-03-01T02:18:02;164310.16;;;34.49;100.00
37298;BME280;30517;51.932;4.278;2023-03-01T02:23:43;164446.34;;;34.45;100.00
37298;BME280;30517;51.932;4.278;2023-03-01T02:26:42;164468.84;;;34.46;100.00
37298;BME280;30517;51.932;4.278;2023-03-01T02:29:26;164616.75;;;34.42;100.00
37298;BME280;30517;51.932;4.278;2023-03-01T02:32:07;164645.63;;;34.41;100.00
37298;BME280;30517;51.932;4.278;2023-03-01T02:34:48;164654.38;;;34.42;100.00
37298;BME280;30517;51.932;4.278;2023-03-01T02:37:29;164769.19;;;34.39;100.00
37298;BME280;30517;51.932;4.278;2023-03-01T02:40:16;164979.06;;;34.35;100.00
37298;BME280;30517;51.932;4.278;2023-03-01T02:42:58;164819.06;;;34.38;100.00
37298;BME280;30517;51.932;4.278;2023-03-01T02:45:48;165004.13;;;34.33;100.00
37298;BME280;30517;51.932;4.278;2023-03-01T02:48:47;165096.81;;;34.32;100.00
37298;BME280;30517;51.932;4.278;2023-03-01T02:51:47;165241.97;;;34.29;100.00
37298;BME280;30517;51.932;4.278;2023-03-01T02:54:34;165239.13;;;34.28;100.00
37298;BME280;30517;51.932;4.278;2023-03-01T02:57:19;165188.94;;;34.29;100.00
37298;BME280;30517;51.932;4.278;2023-03-01T03:00:15;165126.72;;;34.30;100.00
37298;BME280;30517;51.932;4.278;2023-03-01T03:02:59;165079.38;;;34.31;100.00
37298;BME280;30517;51.932;4.278;2023-03-01T03:05:40;165180.06;;;34.29;100.00
37298;BME280;30517;51.932;4.278;2023-03-01T03:08:21;165254.03;;;34.28;100.00
37298;BME280;30517;51.932;4.278;2023-03-01T03:11:03;165151.38;;;34.30;100.00
37298;BME280;30517;51.932;4.278;2023-03-01T03:13:44;165186.94;;;34.29;100.00
37298;BME280;30517;51.932;4.278;2023-03-01T03:16:28;165370.38;;;34.26;100.00
37298;BME280;30517;51.932;4.278;2023-03-01T03:19:09;165560.78;;;34.22;100.00
37298;BME280;30517;51.932;4.278;2023-03-01T03:21:50;165565.63;;;34.21;100.00
37298;BME280;30517;51.932;4.278;2023-03-01T03:24:31;165593.34;;;34.20;100.00
37298;BME280;30517;51.932;4.278;2023-03-01T03:27:18;165551.84;;;34.21;100.00
37298;BME280;30517;51.932;4.278;2023-03-01T03:29:58;165692.78;;;34.18;100.00
37298;BME280;30517;51.932;4.278;2023-03-01T03:32:40;165643.59;;;34.19;100.00
37298;BME280;30517;51.932;4.278;2023-03-01T03:35:24;165591.28;;;34.20;100.00
37298;BME280;30517;51.932;4.278;2023-03-01T03:38:08;166194.75;;;34.06;100.00
37298;BME280;30517;51.932;4.278;2023-03-01T03:41:04;165852.16;;;34.14;100.00
37298;BME280;30517;51.932;4.278;2023-03-01T03:43:45;165922.06;;;34.13;100.00
37298;BME280;30517;51.932;4.278;2023-03-01T03:46:26;166007.38;;;34.11;100.00
37298;BME280;30517;51.932;4.278;2023-03-01T03:49:07;166007.38;;;34.11;100.00
37298;BME280;30517;51.932;4.278;2023-03-01T03:51:48;166021.06;;;34.12;100.00
37298;BME280;30517;51.932;4.278;2023-03-01T03:54:29;166073.31;;;34.10;100.00
37298;BME280;30517;51.932;4.278;2023-03-01T03:57:09;166190.03;;;34.07;100.00
37298;BME280;30517;51.932;4.278;2023-03-01T03:59:50;166475.19;;;34.01;100.00
37298;BME280;30517;51.932;4.278;2023-03-01T04:02:31;166274.38;;;34.06;100.00
37298;BME280;30517;51.932;4.278;2023-03-01T04:05:14;166579.31;;;34.00;100.00
37298;BME280;30517;51.932;4.278;2023-03-01T04:07:56;166544.09;;;34.01;100.00
37298;BME280;30517;51.932;4.278;2023-03-01T04:10:45;166426.22;;;34.02;100.00
37298;BME280;30517;51.932;4.278;2023-03-01T04:13:27;166489.00;;;34.01;100.00
37298;BME280;30517;51.932;4.278;2023-03-01T04:16:08;166485.13;;;34.01;100.00
37298;BME280;30517;51.932;4.278;2023-03-01T04:18:49;166626.00;;;33.98;100.00
37298;BME280;30517;51.932;4.278;2023-03-01T04:21:30;166737.63;;;33.95;100.00
37298;BME280;30517;51.932;4.278;2023-03-01T04:24:11;166709.34;;;33.96;100.00
37298;BME280;30517;51.932;4.278;2023-03-01T04:26:52;166707.06;;;33.96;100.00
37298;BME280;30517;51.932;4.278;2023-03-01T04:29:33;166860.63;;;33.92;100.00
37298;BME280;30517;51.932;4.278;2023-03-01T04:32:14;166839.94;;;33.92;100.00
37298;BME280;30517;51.932;4.278;2023-03-01T04:34:56;167739.53;;;33.72;100.00
37298;BME280;30517;51.932;4.278;2023-03-01T04:37:37;166902.66;;;33.92;100.00
37298;BME280;30517;51.932;4.278;2023-03-01T04:40:17;166969.13;;;33.90;100.00
37298;BME280;30517;51.932;4.278;2023-03-01T04:42:58;166955.34;;;33.90;100.00
37298;BME280;30517;51.932;4.278;2023-03-01T04:45:39;167007.97;;;33.89;100.00
37298;BME280;30517;51.932;4.278;2023-03-01T04:48:20;167273.28;;;33.83;100.00
37298;BME280;30517;51.932;4.278;2023-03-01T04:51:01;167091.97;;;33.88;100.00
37298;BME280;30517;51.932;4.278;2023-03-01T04:53:43;167196.28;;;33.85;100.00
37298;BME280;30517;51.932;4.278;2023-03-01T04:56:24;167318.91;;;33.82;100.00
37298;BME280;30517;51.932;4.278;2023-03-01T04:59:08;167321.78;;;33.82;100.00
37298;BME280;30517;51.932;4.278;2023-03-01T05:01:50;167353.59;;;33.81;100.00
37298;BME280;30517;51.932;4.278;2023-03-01T05:04:31;167565.75;;;33.76;100.00
37298;BME280;30517;51.932;4.278;2023-03-01T05:07:12;167559.25;;;33.77;100.00
37298;BME280;30517;51.932;4.278;2023-03-01T05:09:59;167499.53;;;33.77;100.00
37298;BME280;30517;51.932;4.278;2023-03-01T05:12:40;167527.59;;;33.77;100.00
37298;BME280;30517;51.932;4.278;2023-03-01T05:15:20;167624.22;;;33.75;100.00
37298;BME280;30517;51.932;4.278;2023-03-01T05:18:01;167558.88;;;33.76;100.00
37298;BME280;30517;51.932;4.278;2023-03-01T05:20:42;167510.97;;;33.77;100.00
37298;BME280;30517;51.932;4.278;2023-03-01T05:23:25;173248.75;;;32.39;100.00
37298;BME280;30517;51.932;4.278;2023-03-01T05:26:06;167990.44;;;33.66;100.00
37298;BME280;30517;51.932;4.278;2023-03-01T05:28:47;167954.78;;;33.67;100.00
37298;BME280;30517;51.932;4.278;2023-03-01T05:31:28;167896.44;;;33.68;100.00
37298;BME280;30517;51.932;4.278;2023-03-01T05:34:10;167879.00;;;33.69;100.00
37298;BME280;30517;51.932;4.278;2023-03-01T05:36:53;169206.19;;;33.37;100.00
37298;BME280;30517;51.932;4.278;2023-03-01T05:39:34;168024.41;;;33.65;100.00
37298;BME280;30517;51.932;4.278;2023-03-01T05:42:15;168074.13;;;33.64;100.00
37298;BME280;30517;51.932;4.278;2023-03-01T05:44:57;168183.72;;;33.61;100.00
37298;BME280;30517;51.932;4.278;2023-03-01T05:47:39;168394.50;;;33.58;100.00
37298;BME280;30517;51.932;4.278;2023-03-01T05:50:28;168391.31;;;33.57;100.00
37298;BME280;30517;51.932;4.278;2023-03-01T05:53:19;168463.09;;;33.56;100.00
37298;BME280;30517;51.932;4.278;2023-03-01T05:56:03;168370.41;;;33.57;100.00
37298;BME280;30517;51.932;4.278;2023-03-01T05:58:44;168567.16;;;33.54;100.00
37298;BME280;30517;51.932;4.278;2023-03-01T06:01:25;168464.06;;;33.55;100.00
37298;BME280;30517;51.932;4.278;2023-03-01T06:04:06;169111.34;;;33.41;100.00
37298;BME280;30517;51.932;4.278;2023-03-01T06:06:47;168628.75;;;33.52;100.00
37298;BME280;30517;51.932;4.278;2023-03-01T06:09:27;169764.91;;;33.26;100.00
37298;BME280;30517;51.932;4.278;2023-03-01T06:12:08;168787.97;;;33.50;100.00
37298;BME280;30517;51.932;4.278;2023-03-01T06:14:49;168860.69;;;33.48;100.00
37298;BME280;30517;51.932;4.278;2023-03-01T06:17:32;168922.97;;;33.46;100.00
37298;BME280;30517;51.932;4.278;2023-03-01T06:20:20;169239.09;;;33.39;100.00
37298;BME280;30517;51.932;4.278;2023-03-01T06:23:01;169272.75;;;33.38;100.00
37298;BME280;30517;51.932;4.278;2023-03-01T06:25:41;168998.19;;;33.44;100.00
37298;BME280;30517;51.932;4.278;2023-03-01T06:28:22;169080.28;;;33.42;100.00
37298;BME280;30517;51.932;4.278;2023-03-01T06:31:03;169150.19;;;33.41;100.00
37298;BME280;30517;51.932;4.278;2023-03-01T06:33:44;169184.78;;;33.41;100.00
37298;BME280;30517;51.932;4.278;2023-03-01T06:36:25;169208.13;;;33.41;100.00
37298;BME280;30517;51.932;4.278;2023-03-01T06:39:06;169310.84;;;33.38;100.00
37298;BME280;30517;51.932;4.278;2023-03-01T06:41:47;169609.78;;;33.31;100.00
37298;BME280;30517;51.932;4.278;2023-03-01T06:44:28;169358.34;;;33.37;100.00
37298;BME280;30517;51.932;4.278;2023-03-01T06:47:09;169992.16;;;33.22;100.00
37298;BME280;30517;51.932;4.278;2023-03-01T06:49:49;170110.53;;;33.19;100.00
37298;BME280;30517;51.932;4.278;2023-03-01T06:52:30;169695.13;;;33.30;100.00
37298;BME280;30517;51.932;4.278;2023-03-01T06:55:12;169732.06;;;33.29;100.00
37298;BME280;30517;51.932;4.278;2023-03-01T06:57:58;169637.44;;;33.31;100.00
37298;BME280;30517;51.932;4.278;2023-03-01T07:00:39;169685.69;;;33.30;100.00
37298;BME280;30517;51.932;4.278;2023-03-01T07:03:20;169695.13;;;33.30;100.00
37298;BME280;30517;51.932;4.278;2023-03-01T07:06:02;169835.19;;;33.26;100.00
37298;BME280;30517;51.932;4.278;2023-03-01T07:08:43;169705.41;;;33.30;100.00
37298;BME280;30517;51.932;4.278;2023-03-01T07:11:24;169907.47;;;33.25;100.00
37298;BME280;30517;51.932;4.278;2023-03-01T07:14:05;169896.41;;;33.26;100.00
37298;BME280;30517;51.932;4.278;2023-03-01T07:16:46;169944.28;;;33.24;100.00
37298;BME280;30517;51.932;4.278;2023-03-01T07:19:28;169882.56;;;33.26;100.00
37298;BME280;30517;51.932;4.278;2023-03-01T07:22:09;170009.91;;;33.23;100.00
37298;BME280;30517;51.932;4.278;2023-03-01T07:24:49;170084.66;;;33.22;100.00
37298;BME280;30517;51.932;4.278;2023-03-01T07:27:30;170139.69;;;33.21;100.00
37298;BME280;30517;51.932;4.278;2023-03-01T07:30:11;170047.03;;;33.23;100.00
37298;BME280;30517;51.932;4.278;2023-03-01T07:32:52;170251.91;;;33.18;100.00
37298;BME280;30517;51.932;4.278;2023-03-01T07:35:33;170204.97;;;33.20;100.00
37298;BME280;30517;51.932;4.278;2023-03-01T07:38:14;170191.13;;;33.20;100.00
37298;BME280;30517;51.932;4.278;2023-03-01T07:41:02;170184.19;;;33.20;100.00
37298;BME280;30517;51.932;4.278;2023-03-01T07:43:43;170238.44;;;33.19;100.00
37298;BME280;30517;51.932;4.278;2023-03-01T07:46:24;170524.03;;;33.12;100.00
37298;BME280;30517;51.932;4.278;2023-03-01T07:49:05;170371.34;;;33.16;100.00
37298;BME280;30517;51.932;4.278;2023-03-01T07:51:45;170497.22;;;33.13;100.00
37298;BME280;30517;51.932;4.278;2023-03-01T07:54:26;170562.38;;;33.12;100.00
37298;BME280;30517;51.932;4.278;2023-03-01T07:57:07;170619.75;;;33.11;100.00
37298;BME280;30517;51.932;4.278;2023-03-01T07:59:48;170704.34;;;33.09;100.00
37298;BME280;30517;51.932;4.278;2023-03-01T08:02:28;170867.75;;;33.06;100.00
37298;BME280;30517;51.932;4.278;2023-03-01T08:05:09;170718.19;;;33.09;100.00
37298;BME280;30517;51.932;4.278;2023-03-01T08:07:50;170784.06;;;33.08;100.00
37298;BME280;30517;51.932;4.278;2023-03-01T08:10:31;170760.06;;;33.08;100.00
37298;BME280;30517;51.932;4.278;2023-03-01T08:13:12;171256.13;;;32.96;100.00
37298;BME280;30517;51.932;4.278;2023-03-01T08:15:53;170784.06;;;33.08;100.00
37298;BME280;30517;51.932;4.278;2023-03-01T08:18:34;170820.59;;;33.06;100.00
37298;BME280;30517;51.932;4.278;2023-03-01T08:21:16;171022.69;;;33.01;100.00
37298;BME280;30517;51.932;4.278;2023-03-01T08:23:58;170952.19;;;33.04;100.00
37298;BME280;30517;51.932;4.278;2023-03-01T08:26:38;170952.19;;;33.04;100.00
37298;BME280;30517;51.932;4.278;2023-03-01T08:29:19;171015.78;;;33.01;100.00
37298;BME280;30517;51.932;4.278;2023-03-01T08:32:00;170850.16;;;33.05;100.00
37298;BME280;30517;51.932;4.278;2023-03-01T08:34:41;170782.75;;;33.07;100.00
37298;BME280;30517;51.932;4.278;2023-03-01T08:37:22;170802.22;;;33.06;100.00
37298;BME280;30517;51.932;4.278;2023-03-01T08:40:03;170887.44;;;33.04;100.00
37298;BME280;30517;51.932;4.278;2023-03-01T08:42:47;170945.50;;;33.03;100.00
37298;BME280;30517;51.932;4.278;2023-03-01T08:45:27;170959.38;;;33.03;100.00
37298;BME280;30517;51.932;4.278;2023-03-01T08:48:08;170869.59;;;33.04;100.00
37298;BME280;30517;51.932;4.278;2023-03-01T08:50:49;170949.25;;;33.03;100.00
37298;BME280;30517;51.932;4.278;2023-03-01T08:53:30;171027.28;;;33.02;100.00
37298;BME280;30517;51.932;4.278;2023-03-01T08:56:11;170985.69;;;33.02;100.00
37298;BME280;30517;51.932;4.278;2023-03-01T08:58:52;170812.31;;;33.06;100.00
37298;BME280;30517;51.932;4.278;2023-03-01T09:01:33;170945.28;;;33.04;100.00
37298;BME280;30517;51.932;4.278;2023-03-01T09:04:14;170809.13;;;33.06;100.00
37298;BME280;30517;51.932;4.278;2023-03-01T09:06:56;170742.50;;;33.08;100.00
37298;BME280;30517;51.932;4.278;2023-03-01T09:09:37;170890.38;;;33.04;100.00
37298;BME280;30517;51.932;4.278;2023-03-01T09:12:18;171006.47;;;33.02;100.00
37298;BME280;30517;51.932;4.278;2023-03-01T09:14:59;170959.38;;;33.03;100.00
37298;BME280;30517;51.932;4.278;2023-03-01T09:17:39;170954.78;;;33.02;100.00
37298;BME280;30517;51.932;4.278;2023-03-01T09:20:20;170822.47;;;33.05;100.00
37298;BME280;30517;51.932;4.278;2023-03-01T09:23:01;171196.88;;;32.96;100.00
37298;BME280;30517;51.932;4.278;2023-03-01T09:25:42;170910.63;;;33.04;100.00
37298;BME280;30517;51.932;4.278;2023-03-01T09:28:22;170896.75;;;33.04;100.00
37298;BME280;30517;51.932;4.278;2023-03-01T09:31:04;171891.97;;;32.78;100.00
37298;BME280;30517;51.932;4.278;2023-03-01T09:33:47;170862.66;;;33.04;100.00
37298;BME280;30517;51.932;4.278;2023-03-01T09:36:28;170890.06;;;33.03;100.00
37298;BME280;30517;51.932;4.278;2023-03-01T09:39:09;171145.22;;;32.96;100.00
37298;BME280;30517;51.932;4.278;2023-03-01T09:41:59;170873.03;;;33.03;100.00
37298;BME280;30517;51.932;4.278;2023-03-01T09:44:49;170890.06;;;33.03;100.00
37298;BME280;30517;51.932;4.278;2023-03-01T09:47:34;170689.47;;;33.07;100.00
37298;BME280;30517;51.932;4.278;2023-03-01T09:50:18;170685.78;;;33.07;100.00
37298;BME280;30517;51.932;4.278;2023-03-01T09:53:05;170726.00;;;33.06;100.00
37298;BME280;30517;51.932;4.278;2023-03-01T09:56:05;170705.22;;;33.06;100.00
37298;BME280;30517;51.932;4.278;2023-03-01T09:58:54;170962.91;;;33.00;100.00
37298;BME280;30517;51.932;4.278;2023-03-01T10:01:49;170746.22;;;33.05;100.00
37298;BME280;30517;51.932;4.278;2023-03-01T10:04:48;170718.53;;;33.05;100.00
37298;BME280;30517;51.932;4.278;2023-03-01T10:07:43;170817.59;;;33.03;100.00
37298;BME280;30517;51.932;4.278;2023-03-01T10:10:36;170751.81;;;33.04;100.00
37298;BME280;30517;51.932;4.278;2023-03-01T10:13:24;170514.91;;;33.09;100.00
37298;BME280;30517;51.932;4.278;2023-03-01T10:16:14;170785.91;;;33.04;100.00
37298;BME280;30517;51.932;4.278;2023-03-01T10:19:02;170524.22;;;33.09;100.00
37298;BME280;30517;51.932;4.278;2023-03-01T10:21:45;170541.31;;;33.08;100.00
37298;BME280;30517;51.932;4.278;2023-03-01T10:24:26;170700.94;;;33.05;100.00
37298;BME280;30517;51.932;4.278;2023-03-01T10:27:22;170687.09;;;33.05;100.00
37298;BME280;30517;51.932;4.278;2023-03-01T10:30:16;170696.41;;;33.04;100.00
37298;BME280;30517;51.932;4.278;2023-03-01T10:33:00;170557.88;;;33.07;100.00
37298;BME280;30517;51.932;4.278;2023-03-01T10:35:41;170550.94;;;33.07;100.00
37298;BME280;30517;51.932;4.278;2023-03-01T10:38:22;170936.44;;;32.97;100.00
37298;BME280;30517;51.932;4.278;2023-03-01T10:41:06;170404.59;;;33.10;100.00
37298;BME280;30517;51.932;4.278;2023-03-01T10:43:50;170458.19;;;33.08;100.00
37298;BME280;30517;51.932;4.278;2023-03-01T10:46:33;170424.88;;;33.09;100.00
37298;BME280;30517;51.932;4.278;2023-03-01T10:49:17;170302.44;;;33.12;100.00
37298;BME280;30517;51.932;4.278;2023-03-01T10:52:11;170328.88;;;33.11;100.00
37298;BME280;30517;51.932;4.278;2023-03-01T10:55:30;170654.50;;;33.03;100.00
37298;BME280;30517;51.932;4.278;2023-03-01T11:01:05;170274.75;;;33.12;100.00
37298;BME280;30517;51.932;4.278;2023-03-01T11:04:08;170175.44;;;33.14;100.00
37298;BME280;30517;51.932;4.278;2023-03-01T11:06:57;170202.72;;;33.13;100.00
37298;BME280;30517;51.932;4.278;2023-03-01T11:09:38;170005.63;;;33.17;100.00
37298;BME280;30517;51.932;4.278;2023-03-01T11:12:20;170001.94;;;33.17;100.00
37298;BME280;30517;51.932;4.278;2023-03-01T11:15:02;170181.94;;;33.13;100.00
37298;BME280;30517;51.932;4.278;2023-03-01T11:17:43;170231.94;;;33.11;100.00
37298;BME280;30517;51.932;4.278;2023-03-01T11:20:29;170041.06;;;33.15;100.00
37298;BME280;30517;51.932;4.278;2023-03-01T11:23:13;169912.34;;;33.17;100.00
37298;BME280;30517;51.932;4.278;2023-03-01T11:26:07;169908.69;;;33.17;100.00
37298;BME280;30517;51.932;4.278;2023-03-01T11:28:53;169914.41;;;33.16;100.00
37298;BME280;30517;51.932;4.278;2023-03-01T11:31:36;169822.75;;;33.18;100.00
37298;BME280;30517;51.932;4.278;2023-03-01T11:34:24;169881.00;;;33.17;100.00
37298;BME280;30517;51.932;4.278;2023-03-01T11:38:32;169822.75;;;33.18;100.00
37298;BME280;30517;51.932;4.278;2023-03-01T11:40:47;169975.91;;;33.14;100.00
37298;BME280;30517;51.932;4.278;2023-03-01T11:44:03;169615.16;;;33.23;100.00
37298;BME280;30517;51.932;4.278;2023-03-01T11:53:29;169409.53;;;33.26;100.00
37298;BME280;30517;51.932;4.278;2023-03-01T12:02:40;169187.66;;;33.30;100.00
37298;BME280;30517;51.932;4.278;2023-03-01T12:08:10;168919.78;;;33.35;100.00
37298;BME280;30517;51.932;4.278;2023-03-01T12:11:03;168940.38;;;33.34;100.00
37298;BME280;30517;51.932;4.278;2023-03-01T12:29:05;168300.19;;;33.47;100.00
37298;BME280;30517;51.932;4.278;2023-03-01T12:44:13;168059.88;;;33.50;100.00
37298;BME280;30517;51.932;4.278;2023-03-01T12:49:50;167701.25;;;33.58;100.00
37298;BME280;30517;51.932;4.278;2023-03-01T12:52:47;167683.88;;;33.59;100.00
37298;BME280;30517;51.932;4.278;2023-03-01T12:55:33;167639.56;;;33.60;100.00
37298;BME280;30517;51.932;4.278;2023-03-01T12:58:24;167527.88;;;33.61;100.00
37298;BME280;30517;51.932;4.278;2023-03-01T13:01:27;167527.88;;;33.61;100.00
37298;BME280;30517;51.932;4.278;2023-03-01T13:04:50;167379.44;;;33.64;100.00
37298;BME280;30517;51.932;4.278;2023-03-01T13:07:40;167300.22;;;33.66;100.00
37298;BME280;30517;51.932;4.278;2023-03-01T13:10:35;167081.13;;;33.71;100.00
37298;BME280;30517;51.932;4.278;2023-03-01T13:13:24;167040.22;;;33.72;100.00
37298;BME280;30517;51.932;4.278;2023-03-01T13:19:20;166838.22;;;33.76;100.00
37298;BME280;30517;51.932;4.278;2023-03-01T13:22:25;166690.09;;;33.79;100.00
37298;BME280;30517;51.932;4.278;2023-03-01T13:25:17;167417.44;;;33.61;100.00
37298;BME280;30517;51.932;4.278;2023-03-01T13:34:03;166336.84;;;33.86;100.00
37298;BME280;30517;51.932;4.278;2023-03-01T13:36:48;166243.81;;;33.87;100.00
37298;BME280;30517;51.932;4.278;2023-03-01T13:39:32;166101.09;;;33.89;100.00
37298;BME280;30517;51.932;4.278;2023-03-01T13:42:36;165934.09;;;33.92;100.00
37298;BME280;30517;51.932;4.278;2023-03-01T13:45:36;165763.03;;;33.95;100.00
37298;BME280;30517;51.932;4.278;2023-03-01T13:48:24;165640.88;;;33.98;100.00
37298;BME280;30517;51.932;4.278;2023-03-01T13:51:09;165606.47;;;33.98;100.00
37298;BME280;30517;51.932;4.278;2023-03-01T13:53:51;165476.50;;;34.01;100.00
37298;BME280;30517;51.932;4.278;2023-03-01T13:56:37;165300.44;;;34.04;100.00
37298;BME280;30517;51.932;4.278;2023-03-01T13:59:21;165210.19;;;34.06;100.00
37298;BME280;30517;51.932;4.278;2023-03-01T14:02:02;165097.53;;;34.08;100.00
37298;BME280;30517;51.932;4.278;2023-03-01T14:04:43;164915.94;;;34.11;100.00
37298;BME280;30517;51.932;4.278;2023-03-01T14:07:24;164820.84;;;34.13;100.00
37298;BME280;30517;51.932;4.278;2023-03-01T14:10:05;164711.78;;;34.15;100.00
37298;BME280;30517;51.932;4.278;2023-03-01T14:15:48;164239.84;;;34.24;100.00
37298;BME280;30517;51.932;4.278;2023-03-01T14:21:43;164873.44;;;34.08;100.00
37298;BME280;30517;51.932;4.278;2023-03-01T14:24:25;163455.44;;;34.40;100.00
37298;BME280;30517;51.932;4.278;2023-03-01T14:27:11;163327.91;;;34.42;100.00
37298;BME280;30517;51.932;4.278;2023-03-01T14:29:59;162994.31;;;34.49;100.00
37298;BME280;30517;51.932;4.278;2023-03-01T14:32:40;162687.34;;;34.55;100.00
37298;BME280;30517;51.932;4.278;2023-03-01T14:35:24;162557.50;;;34.57;100.00
37298;BME280;30517;51.932;4.278;2023-03-01T14:38:05;162049.91;;;34.67;100.00
37298;BME280;30517;51.932;4.278;2023-03-01T14:40:48;161681.50;;;34.74;100.00
37298;BME280;30517;51.932;4.278;2023-03-01T14:43:32;161709.81;;;34.74;100.00
37298;BME280;30517;51.932;4.278;2023-03-01T14:46:23;161769.81;;;34.72;100.00
37298;BME280;30517;51.932;4.278;2023-03-01T14:51:55;161691.00;;;34.73;100.00
37298;BME280;30517;51.932;4.278;2023-03-01T14:54:52;161044.44;;;34.86;100.00
37298;BME280;30517;51.932;4.278;2023-03-01T14:57:33;160858.69;;;34.89;100.00
37298;BME280;30517;51.932;4.278;2023-03-01T15:00:18;160701.31;;;34.92;100.00
37298;BME280;30517;51.932;4.278;2023-03-01T15:03:07;159961.13;;;35.07;100.00
37298;BME280;30517;51.932;4.278;2023-03-01T15:05:53;159565.44;;;35.15;100.00
37298;BME280;30517;51.932;4.278;2023-03-01T15:08:35;159238.28;;;35.22;100.00
37298;BME280;30517;51.932;4.278;2023-03-01T15:11:24;158783.94;;;35.30;100.00
37298;BME280;30517;51.932;4.278;2023-03-01T15:14:28;158400.72;;;35.39;100.00
37298;BME280;30517;51.932;4.278;2023-03-01T15:17:36;158130.56;;;35.44;97.50